createdAt,value
2022-12-01T00:01:06.350Z,55.70
2022-12-01T00:03:33.623Z,56.08
2022-12-01T00:06:10.133Z,55.88
2022-12-01T00:08:37.190Z,59.28
2022-12-01T00:11:10.488Z,55.03
2022-12-01T00:13:37.746Z,57.55
2022-12-01T00:16:17.377Z,56.50
2022-12-01T00:18:44.475Z,59.90
2022-12-01T00:21:15.461Z,57.63
2022-12-01T00:23:50.597Z,55.65
2022-12-01T00:26:18.483Z,57.17
2022-12-01T00:28:49.965Z,56.85
2022-12-01T00:33:42.878Z,55.45
2022-12-01T00:36:09.724Z,55.05
2022-12-01T00:38:37.253Z,58.13
2022-12-01T00:41:04.412Z,58.33
2022-12-01T00:43:31.030Z,59.30
2022-12-01T00:45:57.537Z,57.88
2022-12-01T00:48:24.445Z,58.17
2022-12-01T00:50:54.821Z,57.42
2022-12-01T00:53:21.645Z,56.65
2022-12-01T00:55:48.216Z,54.95
2022-12-01T00:58:14.803Z,54.72
2022-12-01T01:00:42.921Z,57.25
2022-12-01T01:03:10.782Z,54.33
2022-12-01T01:05:39.172Z,54.67
2022-12-01T01:08:10.656Z,52.88
2022-12-01T01:13:07.053Z,50.65
2022-12-01T01:15:34.037Z,48.13
2022-12-01T01:18:00.990Z,47.90
2022-12-01T01:20:27.544Z,49.90
2022-12-01T01:22:53.999Z,47.00
2022-12-01T01:25:20.504Z,47.28
2022-12-01T01:27:46.957Z,46.42
2022-12-01T01:30:13.769Z,50.67
2022-12-01T01:32:40.299Z,49.30
2022-12-01T01:35:07.361Z,47.10
2022-12-01T01:37:33.896Z,47.22
2022-12-01T01:40:00.315Z,47.22
2022-12-01T01:42:26.798Z,45.25
2022-12-01T01:44:56.271Z,47.03
2022-12-01T01:47:28.323Z,48.13
2022-12-01T01:49:57.465Z,47.55
2022-12-01T01:52:24.622Z,47.83
2022-12-01T01:54:55.249Z,49.10
2022-12-01T01:57:29.109Z,49.43
2022-12-01T02:00:01.516Z,48.13
2022-12-01T02:02:28.083Z,48.45
2022-12-01T02:08:28.676Z,50.20
2022-12-01T02:11:00.814Z,49.10
2022-12-01T02:13:44.543Z,48.05
2022-12-01T02:16:52.538Z,48.13
2022-12-01T02:19:52.247Z,48.20
2022-12-01T02:22:30.352Z,47.33
2022-12-01T02:25:19.877Z,49.25
2022-12-01T02:28:02.944Z,48.30
2022-12-01T02:30:35.318Z,48.22
2022-12-01T02:33:11.916Z,49.20
2022-12-01T02:35:50.394Z,48.75
2022-12-01T02:38:29.673Z,49.53
2022-12-01T02:41:16.678Z,49.03
2022-12-01T02:44:20.170Z,48.67
2022-12-01T02:47:12.012Z,49.63
2022-12-01T02:49:50.635Z,50.90
2022-12-01T02:52:18.928Z,51.03
2022-12-01T02:54:47.079Z,49.83
2022-12-01T02:57:15.157Z,53.55
2022-12-01T02:59:44.582Z,50.83
2022-12-01T03:02:19.263Z,51.90
2022-12-01T03:05:26.613Z,48.05
2022-12-01T03:08:29.693Z,50.10
2022-12-01T03:10:58.390Z,51.88
2022-12-01T03:13:51.698Z,49.97
2022-12-01T03:16:26.298Z,50.33
2022-12-01T03:19:00.687Z,48.00
2022-12-01T03:21:33.648Z,46.22
2022-12-01T03:24:08.042Z,47.78
2022-12-01T03:26:37.584Z,48.17
2022-12-01T03:29:09.699Z,49.53
2022-12-01T03:31:43.366Z,48.17
2022-12-01T03:34:18.049Z,49.78
2022-12-01T03:36:50.147Z,49.70
2022-12-01T03:39:25.357Z,48.83
2022-12-01T03:42:01.127Z,51.08
2022-12-01T03:44:43.312Z,49.30
2022-12-01T03:47:14.682Z,48.72
2022-12-01T03:49:41.708Z,51.20
2022-12-01T03:52:22.437Z,48.00
2022-12-01T03:55:05.021Z,35.70
2022-12-01T03:58:09.603Z,46.33
2022-12-01T04:00:36.829Z,46.13
2022-12-01T04:03:04.817Z,48.42
2022-12-01T04:05:33.372Z,52.00
2022-12-01T04:08:00.209Z,50.22
2022-12-01T04:10:26.797Z,53.25
2022-12-01T04:12:58.987Z,54.35
2022-12-01T04:15:27.133Z,51.17
2022-12-01T04:17:54.114Z,55.67
2022-12-01T04:20:20.961Z,53.50
2022-12-01T04:22:48.606Z,54.10
2022-12-01T04:25:15.151Z,52.45
2022-12-01T04:27:41.863Z,53.47
2022-12-01T04:30:09.116Z,55.08
2022-12-01T04:32:44.380Z,53.50
2022-12-01T04:35:12.532Z,50.25
2022-12-01T04:37:39.682Z,52.97
2022-12-01T04:40:07.003Z,54.72
2022-12-01T04:42:33.534Z,54.53
2022-12-01T04:44:59.995Z,55.72
2022-12-01T04:47:26.455Z,57.55
2022-12-01T04:49:53.166Z,53.63
2022-12-01T04:52:19.600Z,55.08
2022-12-01T04:54:46.050Z,57.72
2022-12-01T04:57:12.556Z,55.25
2022-12-01T04:59:39.183Z,59.83
2022-12-01T05:02:05.788Z,58.50
2022-12-01T05:04:33.965Z,59.65
2022-12-01T05:07:00.500Z,61.47
2022-12-01T05:09:26.996Z,57.15
2022-12-01T05:11:53.615Z,57.53
2022-12-01T05:14:20.051Z,60.95
2022-12-01T05:16:46.904Z,58.83
2022-12-01T05:19:31.739Z,58.92
2022-12-01T05:21:58.212Z,60.75
2022-12-01T05:24:24.675Z,58.22
2022-12-01T05:26:51.117Z,61.45
2022-12-01T05:29:17.669Z,60.10
2022-12-01T05:31:46.191Z,59.50
2022-12-01T05:34:12.693Z,56.72
2022-12-01T05:36:39.105Z,60.05
2022-12-01T05:39:05.656Z,58.85
2022-12-01T05:41:32.222Z,57.88
2022-12-01T05:43:58.800Z,57.25
2022-12-01T05:46:25.359Z,59.67
2022-12-01T05:48:51.922Z,61.33
2022-12-01T05:51:18.420Z,62.50
2022-12-01T05:53:44.985Z,62.08
2022-12-01T05:56:11.444Z,59.30
2022-12-01T05:58:44.051Z,59.65
2022-12-01T06:01:10.879Z,59.38
2022-12-01T06:03:37.555Z,61.17
2022-12-01T06:06:07.332Z,57.90
2022-12-01T06:08:36.724Z,57.58
2022-12-01T06:11:03.437Z,56.25
2022-12-01T06:13:30.158Z,56.13
2022-12-01T06:16:03.046Z,54.33
2022-12-01T06:18:37.476Z,54.45
2022-12-01T06:21:05.896Z,57.17
2022-12-01T06:23:32.619Z,55.72
2022-12-01T06:26:00.557Z,55.67
2022-12-01T06:28:30.072Z,55.97
2022-12-01T06:31:01.279Z,59.53
2022-12-01T06:33:29.672Z,58.55
2022-12-01T06:36:00.514Z,57.78
2022-12-01T06:38:33.056Z,60.38
2022-12-01T06:41:00.364Z,57.35
2022-12-01T06:43:27.199Z,58.88
2022-12-01T06:45:59.461Z,58.53
2022-12-01T06:48:28.058Z,60.67
2022-12-01T06:51:00.396Z,62.58
2022-12-01T06:53:28.625Z,60.60
2022-12-01T06:56:03.828Z,63.22
2022-12-01T06:58:32.857Z,63.15
2022-12-01T07:01:02.891Z,61.08
2022-12-01T07:03:32.593Z,62.72
2022-12-01T07:06:01.174Z,59.17
2022-12-01T07:08:32.537Z,59.72
2022-12-01T07:11:01.136Z,61.25
2022-12-01T07:13:33.616Z,57.83
2022-12-01T07:16:07.210Z,62.50
2022-12-01T07:18:40.193Z,61.25
2022-12-01T07:21:11.947Z,60.35
2022-12-01T07:23:38.865Z,60.80
2022-12-01T07:26:10.305Z,63.60
2022-12-01T07:31:08.485Z,64.43
2022-12-01T07:33:40.918Z,64.18
2022-12-01T07:36:11.924Z,64.72
2022-12-01T07:38:39.226Z,67.68
2022-12-01T07:41:08.095Z,66.28
2022-12-01T07:43:35.590Z,68.70
2022-12-01T07:46:06.473Z,66.97
2022-12-01T07:48:33.347Z,51.78
2022-12-01T07:50:59.964Z,68.60
2022-12-01T07:53:29.894Z,69.63
2022-12-01T07:55:56.719Z,68.15
2022-12-01T07:58:26.946Z,70.28
2022-12-01T08:01:21.381Z,76.55
2022-12-01T08:03:55.055Z,78.70
2022-12-01T08:06:22.771Z,75.15
2022-12-01T08:09:19.854Z,79.93
2022-12-01T08:12:37.051Z,74.28
2022-12-01T08:14:37.762Z,55.25
2022-12-01T08:17:16.663Z,75.15
2022-12-01T08:19:52.065Z,74.30
2022-12-01T08:22:27.000Z,75.50
2022-12-01T08:24:53.885Z,73.85
2022-12-01T08:27:20.793Z,77.05
2022-12-01T08:29:47.856Z,77.82
2022-12-01T08:32:16.151Z,76.45
2022-12-01T08:34:43.292Z,76.55
2022-12-01T08:37:16.365Z,74.90
2022-12-01T08:39:43.355Z,73.97
2022-12-01T08:42:10.370Z,76.78
2022-12-01T08:44:36.922Z,75.47
2022-12-01T08:47:03.495Z,77.60
2022-12-01T08:49:30.306Z,77.75
2022-12-01T08:51:56.916Z,79.40
2022-12-01T08:54:23.569Z,81.43
2022-12-01T08:56:50.354Z,79.18
2022-12-01T08:59:17.612Z,82.25
2022-12-01T09:01:53.609Z,82.68
2022-12-01T09:04:26.463Z,82.20
2022-12-01T09:07:02.516Z,85.30
2022-12-01T09:12:35.126Z,82.57
2022-12-01T09:15:20.638Z,84.28
2022-12-01T09:18:08.452Z,80.22
2022-12-01T09:20:35.391Z,79.07
2022-12-01T09:23:04.404Z,76.60
2022-12-01T09:25:31.085Z,79.28
2022-12-01T09:28:13.118Z,75.75
2022-12-01T09:30:42.105Z,76.05
2022-12-01T09:33:09.160Z,79.05
2022-12-01T09:35:36.455Z,74.65
2022-12-01T09:38:12.117Z,73.80
2022-12-01T09:40:52.628Z,76.18
2022-12-01T09:43:40.800Z,73.93
2022-12-01T09:46:17.372Z,78.38
2022-12-01T09:48:56.377Z,76.53
2022-12-01T09:51:29.048Z,75.68
2022-12-01T09:54:03.887Z,80.43
2022-12-01T09:56:38.453Z,77.07
2022-12-01T09:59:12.722Z,78.85
2022-12-01T10:02:05.115Z,75.32
2022-12-01T10:04:55.296Z,78.45
2022-12-01T10:07:47.841Z,79.65
2022-12-01T10:10:20.625Z,79.13
2022-12-01T10:12:47.447Z,76.68
2022-12-01T10:15:32.507Z,74.55
2022-12-01T10:18:10.451Z,75.47
2022-12-01T10:20:48.400Z,74.47
2022-12-01T10:23:14.947Z,75.13
2022-12-01T10:26:10.289Z,70.60
2022-12-01T10:29:10.554Z,75.88
2022-12-01T10:31:58.439Z,75.47
2022-12-01T10:34:32.268Z,75.47
2022-12-01T10:36:59.442Z,79.30
2022-12-01T10:39:29.482Z,80.25
2022-12-01T10:42:29.300Z,75.20
2022-12-01T10:44:59.119Z,77.88
2022-12-01T10:47:26.155Z,75.32
2022-12-01T10:49:53.352Z,78.35
2022-12-01T10:52:37.285Z,77.45
2022-12-01T10:55:23.456Z,75.05
2022-12-01T10:57:51.065Z,74.90
2022-12-01T11:00:57.454Z,79.28
2022-12-01T11:03:21.944Z,74.70
2022-12-01T11:05:57.619Z,77.68
2022-12-01T11:08:46.682Z,76.28
2022-12-01T11:11:45.429Z,75.63
2022-12-01T11:14:21.841Z,75.75
2022-12-01T11:16:51.947Z,73.05
2022-12-01T11:19:26.803Z,71.63
2022-12-01T11:21:57.870Z,74.57
2022-12-01T11:24:42.168Z,69.72
2022-12-01T11:27:18.601Z,68.03
2022-12-01T11:29:49.692Z,69.55
2022-12-01T11:32:18.438Z,66.97
2022-12-01T11:34:52.190Z,67.97
2022-12-01T11:37:22.159Z,70.72
2022-12-01T11:39:51.295Z,68.18
2022-12-01T11:42:31.174Z,69.78
2022-12-01T11:45:27.743Z,67.35
2022-12-01T11:48:20.558Z,66.35
2022-12-01T11:51:05.271Z,68.30
2022-12-01T11:53:37.973Z,65.07
2022-12-01T11:56:19.474Z,67.28
2022-12-01T11:58:48.315Z,62.42
2022-12-01T12:01:51.943Z,63.83
2022-12-01T12:04:28.058Z,65.50
2022-12-01T12:07:19.976Z,65.50
2022-12-01T12:09:52.688Z,64.55
2022-12-01T12:12:48.614Z,65.55
2022-12-01T12:15:33.488Z,64.53
2022-12-01T12:18:26.760Z,63.30
2022-12-01T12:21:03.016Z,62.17
2022-12-01T12:23:41.415Z,61.78
2022-12-01T12:26:24.934Z,61.53
2022-12-01T12:29:13.955Z,60.50
2022-12-01T12:32:01.755Z,58.00
2022-12-01T12:34:52.499Z,57.65
2022-12-01T12:37:30.557Z,58.60
2022-12-01T12:40:22.603Z,59.70
2022-12-01T12:42:54.979Z,57.45
2022-12-01T12:45:29.126Z,58.05
2022-12-01T12:47:58.908Z,58.97
2022-12-01T12:50:44.869Z,57.85
2022-12-01T12:53:19.944Z,56.58
2022-12-01T12:55:52.897Z,54.85
2022-12-01T12:58:24.277Z,56.60
2022-12-01T13:00:59.942Z,60.10
2022-12-01T13:03:34.726Z,56.38
2022-12-01T13:06:25.695Z,56.08
2022-12-01T13:09:28.702Z,56.22
2022-12-01T13:12:15.996Z,55.38
2022-12-01T13:14:48.674Z,53.95
2022-12-01T13:17:47.928Z,54.35
2022-12-01T13:20:20.901Z,55.38
2022-12-01T13:22:49.334Z,53.28
2022-12-01T13:25:22.207Z,52.17
2022-12-01T13:27:50.401Z,52.90
2022-12-01T13:30:22.931Z,53.33
2022-12-01T13:32:57.518Z,52.28
2022-12-01T13:35:36.555Z,52.70
2022-12-01T13:38:30.457Z,53.72
2022-12-01T13:41:13.806Z,51.72
2022-12-01T13:43:57.056Z,52.20
2022-12-01T13:46:46.937Z,50.70
2022-12-01T13:49:34.150Z,51.47
2022-12-01T13:52:17.893Z,50.35
2022-12-01T13:55:13.929Z,51.00
2022-12-01T13:57:45.200Z,50.63
2022-12-01T14:00:47.129Z,50.15
2022-12-01T14:03:16.819Z,50.65
2022-12-01T14:05:59.394Z,50.08
2022-12-01T14:08:48.977Z,48.22
2022-12-01T14:11:21.222Z,48.30
2022-12-01T14:13:58.686Z,49.40
2022-12-01T14:16:25.959Z,50.70
2022-12-01T14:18:56.233Z,48.75
2022-12-01T14:21:44.007Z,51.30
2022-12-01T14:24:22.280Z,50.05
2022-12-01T14:26:49.495Z,49.10
2022-12-01T14:29:31.835Z,48.45
2022-12-01T14:32:05.276Z,48.92
2022-12-01T14:34:34.989Z,46.58
2022-12-01T14:37:20.201Z,48.83
2022-12-01T14:39:56.418Z,49.10
2022-12-01T14:42:52.669Z,45.35
2022-12-01T14:45:24.403Z,46.17
2022-12-01T14:48:02.521Z,46.88
2022-12-01T14:50:43.530Z,48.40
2022-12-01T14:53:22.641Z,49.08
2022-12-01T14:56:07.869Z,48.17
2022-12-01T14:58:34.512Z,46.90
2022-12-01T15:01:11.326Z,50.17
2022-12-01T15:03:43.051Z,47.78
2022-12-01T15:06:16.676Z,47.30
2022-12-01T15:08:53.341Z,48.78
2022-12-01T15:11:30.295Z,46.47
2022-12-01T15:13:57.946Z,46.20
2022-12-01T15:16:28.963Z,48.42
2022-12-01T15:18:56.284Z,47.55
2022-12-01T15:21:24.279Z,46.38
2022-12-01T15:24:01.129Z,44.10
2022-12-01T15:26:33.734Z,45.97
2022-12-01T15:29:28.486Z,44.08
2022-12-01T15:32:00.189Z,44.75
2022-12-01T15:34:39.861Z,43.85
2022-12-01T15:37:11.821Z,43.30
2022-12-01T15:39:46.965Z,45.05
2022-12-01T15:42:34.826Z,46.25
2022-12-01T15:45:19.866Z,44.28
2022-12-01T15:47:51.880Z,42.50
2022-12-01T15:50:44.439Z,45.00
2022-12-01T15:53:26.585Z,44.08
2022-12-01T15:55:59.042Z,45.08
2022-12-01T15:58:31.537Z,46.67
2022-12-01T16:01:04.621Z,47.15
2022-12-01T16:03:33.816Z,44.45
2022-12-01T16:06:00.779Z,46.15
2022-12-01T16:08:28.260Z,48.70
2022-12-01T16:11:15.132Z,49.22
2022-12-01T16:13:49.485Z,49.28
2022-12-01T16:16:28.819Z,48.42
2022-12-01T16:18:58.178Z,49.22
2022-12-01T16:21:27.064Z,46.83
2022-12-01T16:24:03.038Z,49.97
2022-12-01T16:26:30.993Z,48.80
2022-12-01T16:28:58.374Z,51.60
2022-12-01T16:31:26.403Z,49.58
2022-12-01T16:34:13.974Z,50.13
2022-12-01T16:36:45.218Z,51.28
2022-12-01T16:39:14.071Z,51.40
2022-12-01T16:41:44.534Z,53.63
2022-12-01T16:44:28.091Z,52.20
2022-12-01T16:46:55.394Z,53.53
2022-12-01T16:49:22.549Z,54.38
2022-12-01T16:51:55.928Z,51.83
2022-12-01T16:54:24.435Z,54.80
2022-12-01T16:56:51.450Z,51.47
2022-12-01T16:59:17.987Z,55.58
2022-12-01T17:01:44.558Z,53.00
2022-12-01T17:04:11.290Z,54.45
2022-12-01T17:06:38.445Z,53.28
2022-12-01T17:09:06.109Z,54.88
2022-12-01T17:11:33.191Z,55.10
2022-12-01T17:13:59.840Z,58.05
2022-12-01T17:16:26.338Z,56.33
2022-12-01T17:18:53.041Z,56.72
2022-12-01T17:21:19.538Z,56.38
2022-12-01T17:23:46.126Z,57.33
2022-12-01T17:26:15.678Z,56.10
2022-12-01T17:28:42.240Z,58.45
2022-12-01T17:31:09.467Z,58.03
2022-12-01T17:33:36.750Z,54.40
2022-12-01T17:36:09.957Z,55.45
2022-12-01T17:38:38.165Z,58.42
2022-12-01T17:41:09.987Z,56.97
2022-12-01T17:43:38.151Z,57.78
2022-12-01T17:46:06.968Z,58.58
2022-12-01T17:48:41.258Z,59.70
2022-12-01T17:51:09.105Z,59.72
2022-12-01T17:53:36.929Z,58.40
2022-12-01T17:56:08.041Z,58.33
2022-12-01T17:58:35.001Z,61.75
2022-12-01T18:01:01.450Z,57.65
2022-12-01T18:03:27.991Z,59.20
2022-12-01T18:05:58.997Z,57.70
2022-12-01T18:08:27.117Z,60.65
2022-12-01T18:10:54.431Z,59.70
2022-12-01T18:13:21.981Z,59.67
2022-12-01T18:15:49.029Z,62.47
2022-12-01T18:18:15.673Z,59.42
2022-12-01T18:20:43.371Z,58.92
2022-12-01T18:23:11.523Z,59.88
2022-12-01T18:25:39.059Z,58.92
2022-12-01T18:28:06.413Z,59.05
2022-12-01T18:30:34.049Z,58.42
2022-12-01T18:33:01.436Z,58.72
2022-12-01T18:35:31.752Z,59.60
2022-12-01T18:37:58.796Z,59.85
2022-12-01T18:40:25.273Z,58.50
2022-12-01T18:42:51.905Z,60.03
2022-12-01T18:45:21.280Z,57.53
2022-12-01T18:47:48.218Z,58.13
2022-12-01T18:50:14.900Z,57.75
2022-12-01T18:52:41.365Z,57.70
2022-12-01T18:55:08.182Z,57.65
2022-12-01T18:57:34.845Z,57.75
2022-12-01T19:00:01.763Z,56.97
2022-12-01T19:02:28.291Z,59.63
2022-12-01T19:04:54.745Z,56.83
2022-12-01T19:07:25.210Z,58.38
2022-12-01T19:09:55.911Z,56.20
2022-12-01T19:12:22.366Z,56.42
2022-12-01T19:14:49.092Z,55.95
2022-12-01T19:17:15.751Z,55.05
2022-12-01T19:19:42.163Z,56.83
2022-12-01T19:22:08.655Z,57.22
2022-12-01T19:24:35.354Z,54.22
2022-12-01T19:27:01.786Z,56.05
2022-12-01T19:29:28.429Z,57.00
2022-12-01T19:31:55.448Z,55.75
2022-12-01T19:34:22.107Z,53.65
2022-12-01T19:36:49.844Z,56.28
2022-12-01T19:39:16.280Z,55.17
2022-12-01T19:41:42.915Z,55.55
2022-12-01T19:44:10.242Z,56.50
2022-12-01T19:46:36.730Z,55.90
2022-12-01T19:49:03.865Z,54.63
2022-12-01T19:51:34.939Z,54.75
2022-12-01T19:54:01.835Z,52.80
2022-12-01T19:56:28.989Z,53.88
2022-12-01T19:58:57.108Z,54.00
2022-12-01T20:01:24.147Z,53.20
2022-12-01T20:03:52.525Z,54.58
2022-12-01T20:06:25.527Z,55.28
2022-12-01T20:08:52.812Z,54.00
2022-12-01T20:11:19.321Z,53.30
2022-12-01T20:13:46.529Z,54.30
2022-12-01T20:16:20.992Z,54.83
2022-12-01T20:18:48.420Z,55.15
2022-12-01T20:21:23.739Z,53.65
2022-12-01T20:24:01.611Z,53.55
2022-12-01T20:26:32.161Z,52.33
2022-12-01T20:29:01.115Z,52.90
2022-12-01T20:31:30.023Z,55.10
2022-12-01T20:33:58.113Z,55.17
2022-12-01T20:36:25.264Z,56.17
2022-12-01T20:38:51.769Z,55.58
2022-12-01T20:41:18.247Z,54.97
2022-12-01T20:43:45.051Z,56.67
2022-12-01T20:46:13.232Z,53.25
2022-12-01T20:48:40.486Z,53.78
2022-12-01T20:51:08.145Z,55.88
2022-12-01T20:53:35.660Z,53.90
2022-12-01T20:56:04.322Z,56.05
2022-12-01T20:58:37.056Z,51.58
2022-12-01T21:01:08.891Z,52.92
2022-12-01T21:03:35.583Z,54.95
2022-12-01T21:06:02.871Z,54.78
2022-12-01T21:08:29.306Z,56.00
2022-12-01T21:10:55.733Z,56.40
2022-12-01T21:13:39.572Z,55.38
2022-12-01T21:16:28.985Z,55.53
2022-12-01T21:19:01.044Z,55.20
2022-12-01T21:21:29.895Z,55.22
2022-12-01T21:24:08.423Z,54.00
2022-12-01T21:26:36.545Z,54.88
2022-12-01T21:29:15.523Z,55.22
2022-12-01T21:31:42.003Z,55.05
2022-12-01T21:34:17.800Z,52.75
2022-12-01T21:36:45.502Z,52.38
2022-12-01T21:39:15.694Z,51.92
2022-12-01T21:41:42.145Z,53.88
2022-12-01T21:44:17.825Z,53.33
2022-12-01T21:46:45.374Z,53.97
2022-12-01T21:49:21.280Z,54.85
2022-12-01T21:51:50.374Z,53.58
2022-12-01T21:54:20.277Z,53.15
2022-12-01T21:56:48.587Z,53.17
2022-12-01T21:59:24.954Z,53.50
2022-12-01T22:01:56.291Z,50.33
2022-12-01T22:04:29.966Z,54.13
2022-12-01T22:06:57.961Z,52.30
2022-12-01T22:09:33.992Z,52.28
2022-12-01T22:12:11.731Z,50.65
2022-12-01T22:14:39.131Z,53.97
2022-12-01T22:17:05.501Z,52.33
2022-12-01T22:19:34.484Z,52.65
2022-12-01T22:22:12.957Z,52.13
2022-12-01T22:24:39.911Z,53.85
2022-12-01T22:27:34.093Z,52.38
2022-12-01T22:30:06.427Z,51.92
2022-12-01T22:33:03.644Z,50.00
2022-12-01T22:35:43.979Z,52.95
2022-12-01T22:38:29.106Z,50.60
2022-12-01T22:41:05.487Z,53.00
2022-12-01T22:43:44.675Z,52.35
2022-12-01T22:46:30.982Z,50.42
2022-12-01T22:49:06.614Z,50.80
2022-12-01T22:51:47.899Z,53.30
2022-12-01T22:54:14.265Z,50.45
2022-12-01T22:56:44.942Z,51.30
2022-12-01T22:59:14.474Z,37.55
2022-12-01T23:01:54.965Z,45.97
2022-12-01T23:04:29.205Z,48.65
2022-12-01T23:07:00.574Z,49.90
2022-12-01T23:09:32.165Z,48.13
2022-12-01T23:12:04.537Z,47.50
2022-12-01T23:14:33.351Z,47.55
2022-12-01T23:17:06.851Z,48.35
2022-12-01T23:19:34.539Z,47.78
2022-12-01T23:22:01.332Z,46.42
2022-12-01T23:24:32.408Z,49.60
2022-12-01T23:27:00.383Z,50.13
2022-12-01T23:29:26.819Z,47.47
2022-12-01T23:31:53.301Z,47.05
2022-12-01T23:34:20.052Z,47.35
2022-12-01T23:36:49.120Z,46.25
2022-12-01T23:39:17.716Z,48.72
2022-12-01T23:41:51.200Z,46.55
2022-12-01T23:44:24.798Z,46.20
2022-12-01T23:46:55.468Z,47.30
2022-12-01T23:49:31.253Z,47.22
2022-12-01T23:52:00.607Z,46.40
2022-12-01T23:54:31.527Z,46.17
2022-12-01T23:57:01.629Z,47.22
2022-12-01T23:59:30.015Z,47.28
